createdAt,value
2022-11-14T00:02:40.794Z,19.38
2022-11-14T00:05:26.676Z,18.60
2022-11-14T00:08:20.303Z,19.70
2022-11-14T00:11:06.571Z,21.40
2022-11-14T00:13:52.371Z,19.95
2022-11-14T00:16:38.210Z,19.33
2022-11-14T00:19:24.168Z,17.95
2022-11-14T00:22:09.917Z,21.38
2022-11-14T00:24:55.950Z,22.67
2022-11-14T00:27:41.783Z,19.50
2022-11-14T00:30:28.384Z,20.75
2022-11-14T00:33:19.757Z,21.55
2022-11-14T00:36:06.334Z,22.95
2022-11-14T00:38:55.380Z,21.40
2022-11-14T00:41:41.985Z,23.15
2022-11-14T00:44:27.696Z,26.02
2022-11-14T00:47:13.694Z,25.35
2022-11-14T00:49:59.603Z,23.63
2022-11-14T00:52:45.751Z,27.08
2022-11-14T00:55:31.793Z,26.05
2022-11-14T00:58:17.481Z,24.95
2022-11-14T01:01:03.716Z,25.80
2022-11-14T01:03:50.133Z,29.27
2022-11-14T01:06:35.923Z,28.15
2022-11-14T01:09:21.684Z,28.15
2022-11-14T01:12:07.538Z,27.25
2022-11-14T01:14:53.534Z,28.48
2022-11-14T01:17:39.264Z,27.08
2022-11-14T01:20:25.560Z,26.35
2022-11-14T01:23:11.930Z,26.45
2022-11-14T01:26:01.944Z,28.42
2022-11-14T01:28:47.753Z,30.73
2022-11-14T01:31:33.614Z,28.77
2022-11-14T01:34:19.606Z,26.00
2022-11-14T01:37:05.496Z,27.92
2022-11-14T01:39:51.299Z,27.33
2022-11-14T01:42:37.232Z,28.17
2022-11-14T01:45:54.071Z,32.63
2022-11-14T01:48:42.332Z,31.58
2022-11-14T01:51:28.088Z,26.63
2022-11-14T01:54:16.323Z,30.70
2022-11-14T01:57:03.070Z,33.17
2022-11-14T01:59:50.996Z,30.63
2022-11-14T02:02:37.892Z,32.88
2022-11-14T02:05:24.012Z,30.35
2022-11-14T02:08:11.036Z,29.77
2022-11-14T02:10:57.029Z,29.02
2022-11-14T02:13:42.974Z,28.85
2022-11-14T02:16:29.268Z,33.05
2022-11-14T02:19:15.382Z,32.58
2022-11-14T02:22:01.355Z,33.30
2022-11-14T02:24:47.323Z,31.35
2022-11-14T02:27:33.906Z,30.23
2022-11-14T02:30:20.893Z,35.83
2022-11-14T02:33:11.369Z,30.88
2022-11-14T02:35:57.961Z,32.38
2022-11-14T02:38:43.834Z,28.33
2022-11-14T02:41:29.592Z,31.88
2022-11-14T02:44:15.578Z,29.75
2022-11-14T02:47:01.430Z,31.85
2022-11-14T02:49:47.268Z,33.22
2022-11-14T02:52:33.306Z,32.58
2022-11-14T02:55:19.092Z,30.23
2022-11-14T02:58:05.017Z,31.88
2022-11-14T03:01:18.492Z,32.55
2022-11-14T03:03:57.735Z,31.85
2022-11-14T03:06:43.614Z,34.10
2022-11-14T03:09:29.439Z,31.40
2022-11-14T03:12:19.451Z,32.55
2022-11-14T03:15:05.944Z,33.03
2022-11-14T03:17:52.069Z,31.52
2022-11-14T03:20:37.913Z,31.00
2022-11-14T03:23:23.783Z,32.78
2022-11-14T03:26:10.487Z,31.88
2022-11-14T03:28:56.376Z,32.92
2022-11-14T03:31:42.321Z,30.88
2022-11-14T03:34:28.359Z,30.70
2022-11-14T03:37:14.262Z,32.33
2022-11-14T03:40:00.263Z,33.88
2022-11-14T03:42:46.232Z,32.08
2022-11-14T03:45:32.108Z,31.85
2022-11-14T03:48:18.054Z,31.08
2022-11-14T03:51:04.007Z,34.40
2022-11-14T03:53:49.775Z,36.30
2022-11-14T03:56:35.787Z,32.38
2022-11-14T03:59:21.627Z,33.38
2022-11-14T04:02:07.744Z,33.03
2022-11-14T04:04:53.679Z,32.47
2022-11-14T04:07:39.483Z,37.13
2022-11-14T04:10:25.383Z,34.97
2022-11-14T04:13:11.270Z,31.55
2022-11-14T04:15:57.683Z,34.63
2022-11-14T04:18:43.638Z,32.97
2022-11-14T04:21:29.575Z,33.33
2022-11-14T04:24:15.602Z,33.38
2022-11-14T04:27:01.564Z,33.42
2022-11-14T04:29:47.415Z,30.10
2022-11-14T04:32:33.475Z,32.85
2022-11-14T04:35:19.374Z,33.33
2022-11-14T04:38:05.335Z,33.92
2022-11-14T04:40:54.343Z,32.20
2022-11-14T04:43:40.214Z,33.88
2022-11-14T04:46:26.092Z,32.30
2022-11-14T04:49:12.077Z,31.63
2022-11-14T04:51:57.935Z,33.08
2022-11-14T04:54:43.864Z,33.53
2022-11-14T04:57:29.756Z,33.28
2022-11-14T05:00:16.060Z,34.00
2022-11-14T05:03:02.063Z,31.80
2022-11-14T05:05:47.912Z,31.33
2022-11-14T05:08:34.530Z,30.73
2022-11-14T05:11:25.259Z,29.92
2022-11-14T05:14:14.138Z,35.50
2022-11-14T05:17:00.067Z,31.63
2022-11-14T05:19:46.043Z,32.55
2022-11-14T05:22:32.047Z,29.88
2022-11-14T05:25:18.010Z,35.08
2022-11-14T05:28:03.967Z,29.88
2022-11-14T05:30:49.849Z,28.63
2022-11-14T05:33:36.320Z,31.02
2022-11-14T05:36:22.238Z,31.92
2022-11-14T05:39:08.259Z,30.83
2022-11-14T05:41:54.366Z,32.95
2022-11-14T05:44:40.422Z,31.67
2022-11-14T05:47:26.276Z,30.42
2022-11-14T05:50:12.240Z,28.58
2022-11-14T05:52:58.217Z,32.92
2022-11-14T05:55:44.033Z,31.33
2022-11-14T05:58:30.225Z,32.72
2022-11-14T06:01:17.969Z,30.30
2022-11-14T06:04:06.508Z,29.05
2022-11-14T06:06:52.520Z,33.53
2022-11-14T06:09:38.480Z,32.88
2022-11-14T06:12:24.273Z,30.40
2022-11-14T06:15:10.236Z,29.27
2022-11-14T06:17:57.903Z,28.38
2022-11-14T06:20:43.665Z,29.88
2022-11-14T06:23:29.820Z,28.88
2022-11-14T06:26:22.627Z,27.20
2022-11-14T06:29:08.283Z,31.58
2022-11-14T06:31:54.060Z,28.63
2022-11-14T06:34:40.061Z,32.78
2022-11-14T06:37:28.400Z,28.05
2022-11-14T06:40:16.279Z,30.13
2022-11-14T06:43:02.063Z,35.47
2022-11-14T06:45:48.011Z,31.42
2022-11-14T06:48:34.297Z,31.38
2022-11-14T06:51:20.337Z,29.70
2022-11-14T06:54:06.073Z,31.48
2022-11-14T06:56:51.782Z,29.40
2022-11-14T06:59:37.690Z,30.95
2022-11-14T07:02:23.817Z,28.25
2022-11-14T07:05:09.527Z,29.13
2022-11-14T07:07:55.796Z,28.05
2022-11-14T07:10:41.595Z,27.02
2022-11-14T07:13:27.610Z,25.35
2022-11-14T07:16:13.428Z,27.15
2022-11-14T07:18:59.970Z,27.10
2022-11-14T07:21:45.847Z,31.75
2022-11-14T07:24:31.716Z,29.65
2022-11-14T07:27:17.746Z,30.08
2022-11-14T07:30:03.684Z,27.77
2022-11-14T07:32:55.091Z,27.13
2022-11-14T07:35:40.702Z,28.48
2022-11-14T07:38:26.902Z,29.60
2022-11-14T07:41:13.917Z,29.48
2022-11-14T07:43:59.591Z,24.83
2022-11-14T07:46:45.651Z,29.90
2022-11-14T07:49:31.488Z,27.58
2022-11-14T07:52:17.476Z,26.65
2022-11-14T07:55:03.348Z,27.38
2022-11-14T07:57:52.780Z,30.00
2022-11-14T08:00:38.792Z,27.10
2022-11-14T08:03:24.669Z,28.55
2022-11-14T08:06:11.916Z,27.23
2022-11-14T08:08:57.702Z,26.13
2022-11-14T08:11:49.626Z,31.17
2022-11-14T08:14:35.720Z,28.13
2022-11-14T08:17:22.196Z,28.73
2022-11-14T08:20:09.205Z,31.70
2022-11-14T08:22:55.670Z,26.90
2022-11-14T08:25:41.928Z,30.77
2022-11-14T08:28:28.218Z,29.45
2022-11-14T08:31:14.367Z,28.23
2022-11-14T08:33:59.998Z,32.97
2022-11-14T08:36:45.819Z,27.95
2022-11-14T08:39:31.626Z,28.40
2022-11-14T08:42:17.550Z,30.17
2022-11-14T08:45:03.760Z,30.38
2022-11-14T08:47:52.963Z,40.17
2022-11-14T08:50:39.044Z,33.05
2022-11-14T08:53:25.129Z,31.73
2022-11-14T08:56:11.653Z,28.83
2022-11-14T08:58:57.628Z,29.35
2022-11-14T09:01:43.651Z,28.55
2022-11-14T09:04:29.497Z,26.15
2022-11-14T09:07:15.510Z,27.55
2022-11-14T09:10:01.241Z,25.40
2022-11-14T09:12:47.314Z,25.50
2022-11-14T09:15:34.305Z,29.02
2022-11-14T09:18:20.380Z,27.17
2022-11-14T09:21:08.030Z,35.17
2022-11-14T09:23:58.782Z,29.38
2022-11-14T09:26:46.238Z,27.63
2022-11-14T09:29:32.213Z,26.58
2022-11-14T09:32:18.165Z,25.98
2022-11-14T09:35:04.129Z,29.10
2022-11-14T09:37:50.194Z,27.15
2022-11-14T09:40:56.232Z,26.55
2022-11-14T09:43:48.345Z,27.50
2022-11-14T09:46:40.338Z,26.45
2022-11-14T09:49:26.574Z,23.92
2022-11-14T09:52:12.376Z,24.20
2022-11-14T09:55:13.102Z,25.30
2022-11-14T09:57:59.180Z,23.92
2022-11-14T10:00:45.100Z,26.50
2022-11-14T10:03:48.787Z,28.05
2022-11-14T10:06:40.933Z,26.08
2022-11-14T10:09:30.804Z,24.85
2022-11-14T10:12:24.353Z,22.75
2022-11-14T10:15:14.036Z,24.83
2022-11-14T10:18:05.670Z,22.85
2022-11-14T10:20:54.486Z,21.25
2022-11-14T10:26:33.108Z,24.25
2022-11-14T10:29:22.154Z,23.25
2022-11-14T10:34:53.670Z,23.08
2022-11-14T10:37:47.259Z,21.90
2022-11-14T10:40:39.730Z,21.63
2022-11-14T10:43:40.643Z,21.58
2022-11-14T10:46:27.987Z,19.77
2022-11-14T10:49:19.943Z,25.60
2022-11-14T10:52:08.288Z,21.30
2022-11-14T10:55:00.085Z,20.23
2022-11-14T10:57:46.322Z,19.42
2022-11-14T11:00:32.431Z,19.90
2022-11-14T11:03:18.088Z,21.30
2022-11-14T11:06:04.064Z,20.65
2022-11-14T11:09:08.545Z,21.55
2022-11-14T11:11:58.533Z,23.02
2022-11-14T11:14:48.839Z,22.92
2022-11-14T11:17:40.195Z,21.70
2022-11-14T11:20:29.002Z,24.70
2022-11-14T11:23:19.485Z,22.88
2022-11-14T11:26:16.589Z,22.05
2022-11-14T11:29:11.823Z,22.20
2022-11-14T11:31:58.638Z,21.30
2022-11-14T11:34:44.571Z,23.35
2022-11-14T11:37:36.407Z,24.90
2022-11-14T11:40:29.481Z,22.58
2022-11-14T11:43:42.351Z,20.42
2022-11-14T11:46:28.132Z,22.52
2022-11-14T11:49:24.942Z,20.92
2022-11-14T11:52:16.532Z,24.95
2022-11-14T11:55:02.163Z,24.83
2022-11-14T11:57:49.283Z,23.02
2022-11-14T12:00:35.086Z,24.35
2022-11-14T12:03:21.007Z,24.58
2022-11-14T12:06:25.700Z,23.50
2022-11-14T12:09:26.825Z,23.75
2022-11-14T12:12:21.706Z,23.83
2022-11-14T12:17:59.520Z,23.95
2022-11-14T12:20:54.672Z,25.77
2022-11-14T12:23:55.885Z,24.92
2022-11-14T12:26:47.911Z,24.83
2022-11-14T12:29:52.214Z,24.70
2022-11-14T12:32:49.884Z,21.33
2022-11-14T12:35:36.736Z,25.02
2022-11-14T12:38:23.305Z,21.40
2022-11-14T12:41:09.744Z,23.92
2022-11-14T12:44:15.674Z,29.10
2022-11-14T12:47:07.712Z,26.13
2022-11-14T12:49:53.812Z,25.48
2022-11-14T12:52:48.547Z,27.42
2022-11-14T12:55:37.287Z,27.23
2022-11-14T12:58:42.014Z,28.00
2022-11-14T13:01:28.464Z,29.73
2022-11-14T13:04:33.198Z,31.08
2022-11-14T13:07:46.606Z,32.78
2022-11-14T13:10:33.362Z,31.52
2022-11-14T13:13:37.863Z,33.90
2022-11-14T13:16:49.463Z,29.95
2022-11-14T13:19:54.286Z,27.35
2022-11-14T13:22:40.085Z,28.63
2022-11-14T13:25:26.279Z,29.40
2022-11-14T13:28:31.169Z,31.02
2022-11-14T13:31:17.167Z,31.45
2022-11-14T13:34:18.747Z,31.80
2022-11-14T13:37:16.930Z,31.05
2022-11-14T13:40:17.581Z,30.48
2022-11-14T13:43:16.806Z,30.60
2022-11-14T13:46:21.847Z,28.45
2022-11-14T13:49:15.401Z,29.77
2022-11-14T13:52:01.355Z,29.38
2022-11-14T13:54:51.468Z,31.27
2022-11-14T13:57:54.066Z,31.35
2022-11-14T14:00:48.584Z,32.88
2022-11-14T14:03:44.087Z,31.08
2022-11-14T14:06:35.782Z,29.90
2022-11-14T14:09:25.600Z,31.10
2022-11-14T14:12:30.256Z,33.55
2022-11-14T14:15:27.293Z,29.08
2022-11-14T14:18:12.987Z,30.30
2022-11-14T14:21:10.327Z,31.13
2022-11-14T14:23:55.910Z,32.53
2022-11-14T14:27:00.716Z,34.92
2022-11-14T14:29:55.907Z,34.05
2022-11-14T14:32:41.866Z,32.97
2022-11-14T14:35:40.169Z,32.90
2022-11-14T14:38:27.716Z,36.78
2022-11-14T14:41:14.573Z,35.65
2022-11-14T14:44:00.504Z,37.42
2022-11-14T14:46:45.970Z,34.90
2022-11-14T14:49:35.116Z,40.83
2022-11-14T14:52:22.370Z,40.08
2022-11-14T14:55:18.446Z,39.03
2022-11-14T14:58:34.671Z,38.95
2022-11-14T15:01:23.610Z,37.45
2022-11-14T15:06:57.392Z,35.97
2022-11-14T15:10:00.362Z,38.58
2022-11-14T15:12:46.433Z,40.83
2022-11-14T15:15:32.324Z,38.17
2022-11-14T15:18:29.283Z,38.78
2022-11-14T15:21:24.327Z,38.97
2022-11-14T15:24:17.628Z,37.38
2022-11-14T15:27:05.519Z,40.50
2022-11-14T15:29:52.782Z,39.17
2022-11-14T15:32:38.683Z,38.15
2022-11-14T15:35:27.530Z,39.85
2022-11-14T15:38:42.643Z,37.13
2022-11-14T15:41:19.254Z,37.95
2022-11-14T15:44:05.669Z,37.55
2022-11-14T15:46:51.541Z,38.17
2022-11-14T15:49:38.472Z,35.05
2022-11-14T15:52:26.627Z,34.35
2022-11-14T15:55:20.104Z,33.95
2022-11-14T16:01:19.810Z,35.10
2022-11-14T16:06:51.125Z,35.28
2022-11-14T16:09:37.091Z,32.92
2022-11-14T16:12:22.984Z,33.90
2022-11-14T16:15:09.111Z,32.65
2022-11-14T16:17:55.064Z,36.58
2022-11-14T16:20:41.768Z,31.60
2022-11-14T16:23:27.687Z,35.13
2022-11-14T16:26:13.364Z,36.08
2022-11-14T16:28:59.331Z,33.88
2022-11-14T16:31:45.494Z,37.03
2022-11-14T16:34:31.655Z,34.08
2022-11-14T16:37:19.286Z,30.23
2022-11-14T16:40:05.630Z,38.78
2022-11-14T16:42:51.756Z,33.15
2022-11-14T16:45:40.354Z,35.50
2022-11-14T16:48:26.312Z,86.32
2022-11-14T16:51:40.925Z,57.15
2022-11-14T16:54:20.883Z,46.55
2022-11-14T16:57:06.831Z,43.72
2022-11-14T16:59:52.900Z,43.50
2022-11-14T17:02:40.751Z,37.78
2022-11-14T17:05:26.708Z,40.88
2022-11-14T17:08:13.225Z,39.03
2022-11-14T17:10:59.706Z,40.28
2022-11-14T17:13:45.763Z,38.83
2022-11-14T17:16:31.867Z,37.38
2022-11-14T17:19:17.742Z,37.95
2022-11-14T17:22:04.796Z,35.28
2022-11-14T17:24:50.860Z,38.85
2022-11-14T17:27:36.972Z,36.50
2022-11-14T17:30:23.057Z,38.80
2022-11-14T17:33:08.700Z,44.40
2022-11-14T17:35:54.678Z,41.08
2022-11-14T17:38:40.681Z,38.88
2022-11-14T17:41:27.789Z,41.80
2022-11-14T17:44:13.670Z,33.85
2022-11-14T17:46:59.526Z,34.17
2022-11-14T17:49:45.393Z,42.38
2022-11-14T17:52:31.351Z,35.25
2022-11-14T17:55:17.368Z,34.53
2022-11-14T17:58:03.219Z,35.20
2022-11-14T18:00:50.153Z,31.90
2022-11-14T18:03:35.748Z,31.77
2022-11-14T18:06:22.313Z,32.25
2022-11-14T18:09:14.074Z,34.13
2022-11-14T18:12:00.739Z,30.67
2022-11-14T18:14:46.870Z,31.38
2022-11-14T18:17:32.743Z,31.98
2022-11-14T18:20:18.680Z,31.15
2022-11-14T18:23:04.539Z,31.83
2022-11-14T18:25:50.485Z,30.17
2022-11-14T18:28:36.365Z,32.42
2022-11-14T18:31:22.318Z,32.03
2022-11-14T18:34:08.467Z,26.25
2022-11-14T18:36:54.299Z,30.80
2022-11-14T18:39:40.195Z,32.67
2022-11-14T18:42:26.048Z,31.45
2022-11-14T18:45:12.052Z,30.83
2022-11-14T18:47:57.720Z,30.50
2022-11-14T18:50:43.597Z,29.45
2022-11-14T18:53:33.518Z,28.67
2022-11-14T18:56:21.385Z,28.13
2022-11-14T18:59:07.294Z,29.33
2022-11-14T19:01:53.367Z,29.58
2022-11-14T19:04:39.461Z,28.05
2022-11-14T19:07:26.114Z,26.90
2022-11-14T19:10:12.022Z,28.48
2022-11-14T19:12:58.095Z,27.50
2022-11-14T19:15:44.016Z,26.20
2022-11-14T19:18:30.881Z,25.00
2022-11-14T19:21:16.645Z,24.30
2022-11-14T19:24:02.652Z,25.42
2022-11-14T19:26:48.518Z,26.98
2022-11-14T19:29:34.396Z,24.67
2022-11-14T19:32:20.400Z,25.77
2022-11-14T19:35:06.561Z,24.58
2022-11-14T19:37:52.294Z,25.70
2022-11-14T19:40:38.886Z,24.52
2022-11-14T19:43:26.001Z,26.48
2022-11-14T19:46:11.904Z,25.58
2022-11-14T19:48:58.728Z,27.80
2022-11-14T19:51:44.781Z,24.27
2022-11-14T19:54:30.403Z,23.95
2022-11-14T19:57:16.346Z,20.50
2022-11-14T20:00:02.368Z,22.38
2022-11-14T20:02:48.400Z,24.25
2022-11-14T20:05:34.450Z,21.10
2022-11-14T20:08:20.351Z,22.00
2022-11-14T20:11:06.616Z,20.75
2022-11-14T20:13:52.448Z,22.33
2022-11-14T20:16:38.335Z,20.60
2022-11-14T20:19:24.279Z,23.45
2022-11-14T20:22:11.056Z,22.42
2022-11-14T20:24:56.675Z,21.50
2022-11-14T20:27:42.526Z,20.40
2022-11-14T20:30:29.166Z,22.83
2022-11-14T20:33:15.119Z,22.55
2022-11-14T20:36:05.010Z,21.25
2022-11-14T20:38:51.190Z,22.40
2022-11-14T20:41:36.683Z,20.83
2022-11-14T20:44:22.641Z,19.80
2022-11-14T20:47:11.029Z,21.17
2022-11-14T20:49:57.383Z,23.08
2022-11-14T20:52:43.309Z,21.80
2022-11-14T20:55:29.214Z,20.80
2022-11-14T20:58:16.181Z,22.17
2022-11-14T21:01:02.359Z,23.67
2022-11-14T21:03:48.352Z,21.98
2022-11-14T21:06:34.439Z,21.35
2022-11-14T21:09:20.296Z,20.65
2022-11-14T21:12:06.397Z,21.63
2022-11-14T21:14:52.223Z,20.08
2022-11-14T21:17:38.180Z,23.15
2022-11-14T21:20:24.086Z,20.55
2022-11-14T21:23:09.933Z,24.40
2022-11-14T21:26:07.395Z,23.38
2022-11-14T21:28:54.352Z,22.13
2022-11-14T21:31:41.363Z,24.35
2022-11-14T21:34:27.284Z,24.08
2022-11-14T21:37:13.237Z,25.77
2022-11-14T21:39:59.151Z,24.80
2022-11-14T21:42:45.134Z,25.20
2022-11-14T21:45:31.196Z,22.50
2022-11-14T21:48:17.074Z,23.48
2022-11-14T21:51:11.543Z,26.23
2022-11-14T21:54:05.175Z,29.33
2022-11-14T21:56:50.614Z,24.27
2022-11-14T21:59:36.479Z,23.90
2022-11-14T22:02:41.182Z,25.75
2022-11-14T22:05:27.116Z,25.08
2022-11-14T22:08:13.023Z,21.58
2022-11-14T22:11:02.243Z,24.92
2022-11-14T22:13:48.302Z,24.48
2022-11-14T22:16:34.733Z,26.08
2022-11-14T22:19:20.285Z,25.33
2022-11-14T22:22:06.139Z,25.20
2022-11-14T22:24:52.145Z,23.60
2022-11-14T22:27:37.947Z,23.80
2022-11-14T22:30:24.073Z,24.02
2022-11-14T22:33:09.960Z,24.95
2022-11-14T22:35:55.691Z,23.60
2022-11-14T22:38:42.126Z,23.25
2022-11-14T22:41:32.562Z,23.25
2022-11-14T22:44:19.375Z,23.67
2022-11-14T22:47:05.234Z,23.20
2022-11-14T22:49:51.209Z,22.02
2022-11-14T22:52:36.995Z,22.90
2022-11-14T22:55:22.750Z,22.33
2022-11-14T22:58:08.628Z,25.13
2022-11-14T23:00:54.592Z,24.55
2022-11-14T23:03:40.891Z,24.02
2022-11-14T23:06:26.848Z,27.67
2022-11-14T23:09:12.552Z,24.38
2022-11-14T23:11:58.442Z,23.92
2022-11-14T23:14:44.343Z,23.67
2022-11-14T23:17:30.222Z,23.38
2022-11-14T23:20:16.901Z,26.45
2022-11-14T23:23:02.849Z,26.40
2022-11-14T23:25:48.479Z,23.35
2022-11-14T23:28:34.414Z,23.10
2022-11-14T23:31:20.606Z,24.77
2022-11-14T23:34:06.491Z,23.58
2022-11-14T23:36:52.355Z,23.55
2022-11-14T23:39:38.215Z,25.40
2022-11-14T23:42:24.167Z,28.38
2022-11-14T23:45:10.383Z,25.63
2022-11-14T23:47:55.968Z,28.58
2022-11-14T23:50:42.062Z,24.80
2022-11-14T23:53:28.198Z,22.95
2022-11-14T23:56:14.684Z,25.67
2022-11-14T23:59:00.265Z,27.95
